sensor_id;sensor_type;location;lat;lon;timestamp;P1;durP1;ratioP1;P2;durP2;ratioP2
19339;SDS011;9804;52.350;6.684;2022-09-14T00:02:20;8.27;;;2.92;;
19339;SDS011;9804;52.350;6.684;2022-09-14T00:04:46;6.38;;;2.50;;
19339;SDS011;9804;52.350;6.684;2022-09-14T00:07:11;7.57;;;3.00;;
19339;SDS011;9804;52.350;6.684;2022-09-14T00:09:36;8.02;;;2.83;;
19339;SDS011;9804;52.350;6.684;2022-09-14T00:12:02;6.38;;;2.80;;
19339;SDS011;9804;52.350;6.684;2022-09-14T00:14:27;10.80;;;2.70;;
19339;SDS011;9804;52.350;6.684;2022-09-14T00:16:52;7.88;;;2.90;;
19339;SDS011;9804;52.350;6.684;2022-09-14T00:19:20;6.38;;;2.20;;
19339;SDS011;9804;52.350;6.684;2022-09-14T00:21:49;5.50;;;2.50;;
19339;SDS011;9804;52.350;6.684;2022-09-14T00:24:16;9.55;;;2.83;;
19339;SDS011;9804;52.350;6.684;2022-09-14T00:26:42;8.98;;;3.00;;
19339;SDS011;9804;52.350;6.684;2022-09-14T00:29:07;10.25;;;2.97;;
19339;SDS011;9804;52.350;6.684;2022-09-14T00:31:35;9.32;;;3.22;;
19339;SDS011;9804;52.350;6.684;2022-09-14T00:34:02;7.90;;;2.83;;
19339;SDS011;9804;52.350;6.684;2022-09-14T00:36:30;6.65;;;2.67;;
19339;SDS011;9804;52.350;6.684;2022-09-14T00:38:56;7.13;;;2.55;;
19339;SDS011;9804;52.350;6.684;2022-09-14T00:41:23;5.28;;;2.70;;
19339;SDS011;9804;52.350;6.684;2022-09-14T00:46:40;7.88;;;3.22;;
19339;SDS011;9804;52.350;6.684;2022-09-14T00:54:34;8.98;;;2.85;;
19339;SDS011;9804;52.350;6.684;2022-09-14T00:57:01;6.38;;;3.03;;
19339;SDS011;9804;52.350;6.684;2022-09-14T00:59:28;7.18;;;3.10;;
19339;SDS011;9804;52.350;6.684;2022-09-14T01:01:56;8.10;;;2.65;;
19339;SDS011;9804;52.350;6.684;2022-09-14T01:04:22;6.97;;;3.22;;
19339;SDS011;9804;52.350;6.684;2022-09-14T01:12:18;6.60;;;2.50;;
19339;SDS011;9804;52.350;6.684;2022-09-14T01:15:08;6.88;;;2.85;;
19339;SDS011;9804;52.350;6.684;2022-09-14T01:20:41;6.32;;;3.08;;
19339;SDS011;9804;52.350;6.684;2022-09-14T01:26:30;5.53;;;2.65;;
19339;SDS011;9804;52.350;6.684;2022-09-14T01:29:14;9.18;;;3.13;;
19339;SDS011;9804;52.350;6.684;2022-09-14T01:32:06;5.88;;;2.85;;
19339;SDS011;9804;52.350;6.684;2022-09-14T01:34:39;10.63;;;3.20;;
19339;SDS011;9804;52.350;6.684;2022-09-14T01:37:13;7.68;;;3.08;;
19339;SDS011;9804;52.350;6.684;2022-09-14T01:39:46;8.25;;;3.03;;
19339;SDS011;9804;52.350;6.684;2022-09-14T01:42:15;8.20;;;3.35;;
19339;SDS011;9804;52.350;6.684;2022-09-14T01:44:46;4.90;;;2.70;;
19339;SDS011;9804;52.350;6.684;2022-09-14T01:47:15;7.72;;;3.17;;
19339;SDS011;9804;52.350;6.684;2022-09-14T01:49:51;7.82;;;2.90;;
19339;SDS011;9804;52.350;6.684;2022-09-14T01:52:33;7.38;;;3.08;;
19339;SDS011;9804;52.350;6.684;2022-09-14T01:55:18;7.82;;;3.08;;
19339;SDS011;9804;52.350;6.684;2022-09-14T01:57:50;7.88;;;2.55;;
19339;SDS011;9804;52.350;6.684;2022-09-14T02:00:20;6.03;;;2.80;;
19339;SDS011;9804;52.350;6.684;2022-09-14T02:02:48;6.20;;;3.17;;
19339;SDS011;9804;52.350;6.684;2022-09-14T02:05:30;8.63;;;3.33;;
19339;SDS011;9804;52.350;6.684;2022-09-14T02:08:01;6.38;;;3.30;;
19339;SDS011;9804;52.350;6.684;2022-09-14T02:10:26;10.07;;;3.40;;
19339;SDS011;9804;52.350;6.684;2022-09-14T02:12:53;11.38;;;3.22;;
19339;SDS011;9804;52.350;6.684;2022-09-14T02:15:19;5.88;;;3.05;;
19339;SDS011;9804;52.350;6.684;2022-09-14T02:17:46;8.70;;;2.88;;
19339;SDS011;9804;52.350;6.684;2022-09-14T02:20:14;5.40;;;2.72;;
19339;SDS011;9804;52.350;6.684;2022-09-14T02:22:45;5.43;;;3.30;;
19339;SDS011;9804;52.350;6.684;2022-09-14T02:25:11;8.68;;;3.08;;
19339;SDS011;9804;52.350;6.684;2022-09-14T02:27:36;10.18;;;3.00;;
19339;SDS011;9804;52.350;6.684;2022-09-14T02:30:02;6.85;;;3.08;;
19339;SDS011;9804;52.350;6.684;2022-09-14T02:35:05;11.35;;;3.15;;
19339;SDS011;9804;52.350;6.684;2022-09-14T02:48:59;7.40;;;3.38;;
19339;SDS011;9804;52.350;6.684;2022-09-14T02:51:44;9.85;;;3.78;;
19339;SDS011;9804;52.350;6.684;2022-09-14T02:54:29;8.55;;;3.72;;
19339;SDS011;9804;52.350;6.684;2022-09-14T02:57:03;4.88;;;3.47;;
19339;SDS011;9804;52.350;6.684;2022-09-14T02:59:28;6.35;;;3.85;;
19339;SDS011;9804;52.350;6.684;2022-09-14T03:01:54;8.98;;;4.25;;
19339;SDS011;9804;52.350;6.684;2022-09-14T03:04:22;6.35;;;3.67;;
19339;SDS011;9804;52.350;6.684;2022-09-14T03:06:48;10.70;;;4.57;;
19339;SDS011;9804;52.350;6.684;2022-09-14T03:09:13;5.78;;;3.47;;
19339;SDS011;9804;52.350;6.684;2022-09-14T03:11:38;6.00;;;4.05;;
19339;SDS011;9804;52.350;6.684;2022-09-14T03:14:04;6.10;;;4.10;;
19339;SDS011;9804;52.350;6.684;2022-09-14T03:16:29;5.72;;;4.30;;
19339;SDS011;9804;52.350;6.684;2022-09-14T03:18:54;5.95;;;4.20;;
19339;SDS011;9804;52.350;6.684;2022-09-14T03:21:20;8.98;;;4.20;;
19339;SDS011;9804;52.350;6.684;2022-09-14T03:23:46;6.15;;;4.50;;
19339;SDS011;9804;52.350;6.684;2022-09-14T03:26:14;5.80;;;4.10;;
19339;SDS011;9804;52.350;6.684;2022-09-14T03:28:48;7.50;;;3.90;;
19339;SDS011;9804;52.350;6.684;2022-09-14T03:31:14;5.50;;;4.30;;
19339;SDS011;9804;52.350;6.684;2022-09-14T03:33:39;4.43;;;3.80;;
19339;SDS011;9804;52.350;6.684;2022-09-14T03:36:15;6.90;;;4.05;;
19339;SDS011;9804;52.350;6.684;2022-09-14T03:38:52;7.68;;;4.38;;
19339;SDS011;9804;52.350;6.684;2022-09-14T03:41:19;10.63;;;4.30;;
19339;SDS011;9804;52.350;6.684;2022-09-14T03:43:46;7.03;;;3.83;;
19339;SDS011;9804;52.350;6.684;2022-09-14T03:46:15;5.35;;;3.92;;
19339;SDS011;9804;52.350;6.684;2022-09-14T03:48:42;6.43;;;3.55;;
19339;SDS011;9804;52.350;6.684;2022-09-14T03:51:09;6.55;;;4.22;;
19339;SDS011;9804;52.350;6.684;2022-09-14T03:53:35;11.13;;;4.50;;
19339;SDS011;9804;52.350;6.684;2022-09-14T03:56:08;6.40;;;3.85;;
19339;SDS011;9804;52.350;6.684;2022-09-14T03:58:34;9.38;;;4.72;;
19339;SDS011;9804;52.350;6.684;2022-09-14T04:01:07;7.55;;;4.38;;
19339;SDS011;9804;52.350;6.684;2022-09-14T04:03:34;7.78;;;4.95;;
19339;SDS011;9804;52.350;6.684;2022-09-14T04:06:00;14.05;;;5.20;;
19339;SDS011;9804;52.350;6.684;2022-09-14T04:08:29;9.40;;;5.00;;
19339;SDS011;9804;52.350;6.684;2022-09-14T04:10:54;10.43;;;4.97;;
19339;SDS011;9804;52.350;6.684;2022-09-14T04:13:20;5.75;;;4.75;;
19339;SDS011;9804;52.350;6.684;2022-09-14T04:15:54;6.05;;;4.65;;
19339;SDS011;9804;52.350;6.684;2022-09-14T04:18:21;10.20;;;4.88;;
19339;SDS011;9804;52.350;6.684;2022-09-14T04:20:52;12.18;;;5.25;;
19339;SDS011;9804;52.350;6.684;2022-09-14T04:23:21;9.40;;;5.82;;
19339;SDS011;9804;52.350;6.684;2022-09-14T04:25:47;9.40;;;5.43;;
19339;SDS011;9804;52.350;6.684;2022-09-14T04:28:12;7.82;;;5.25;;
19339;SDS011;9804;52.350;6.684;2022-09-14T04:30:38;10.48;;;5.32;;
19339;SDS011;9804;52.350;6.684;2022-09-14T04:33:03;9.43;;;5.30;;
19339;SDS011;9804;52.350;6.684;2022-09-14T04:35:28;8.48;;;5.05;;
19339;SDS011;9804;52.350;6.684;2022-09-14T04:37:54;7.82;;;5.10;;
19339;SDS011;9804;52.350;6.684;2022-09-14T04:40:19;8.75;;;4.22;;
19339;SDS011;9804;52.350;6.684;2022-09-14T04:42:45;10.13;;;5.05;;
19339;SDS011;9804;52.350;6.684;2022-09-14T04:45:11;8.70;;;4.45;;
19339;SDS011;9804;52.350;6.684;2022-09-14T04:47:37;8.40;;;4.65;;
19339;SDS011;9804;52.350;6.684;2022-09-14T04:50:03;8.95;;;5.05;;
19339;SDS011;9804;52.350;6.684;2022-09-14T04:52:28;9.55;;;4.80;;
19339;SDS011;9804;52.350;6.684;2022-09-14T04:54:54;8.65;;;4.85;;
19339;SDS011;9804;52.350;6.684;2022-09-14T04:57:19;9.27;;;5.28;;
19339;SDS011;9804;52.350;6.684;2022-09-14T04:59:45;7.03;;;5.22;;
19339;SDS011;9804;52.350;6.684;2022-09-14T05:02:10;9.10;;;4.88;;
19339;SDS011;9804;52.350;6.684;2022-09-14T05:04:35;6.78;;;5.15;;
19339;SDS011;9804;52.350;6.684;2022-09-14T05:07:01;8.52;;;5.07;;
19339;SDS011;9804;52.350;6.684;2022-09-14T05:09:26;7.60;;;5.60;;
19339;SDS011;9804;52.350;6.684;2022-09-14T05:11:52;9.00;;;6.00;;
19339;SDS011;9804;52.350;6.684;2022-09-14T05:14:17;13.68;;;5.70;;
19339;SDS011;9804;52.350;6.684;2022-09-14T05:16:42;11.90;;;6.68;;
19339;SDS011;9804;52.350;6.684;2022-09-14T05:19:13;19.33;;;6.05;;
19339;SDS011;9804;52.350;6.684;2022-09-14T05:21:40;7.50;;;5.43;;
19339;SDS011;9804;52.350;6.684;2022-09-14T05:24:10;10.55;;;5.45;;
19339;SDS011;9804;52.350;6.684;2022-09-14T05:26:40;10.38;;;5.22;;
19339;SDS011;9804;52.350;6.684;2022-09-14T05:29:09;8.85;;;5.63;;
19339;SDS011;9804;52.350;6.684;2022-09-14T05:31:37;10.00;;;6.00;;
19339;SDS011;9804;52.350;6.684;2022-09-14T05:34:02;8.18;;;5.75;;
19339;SDS011;9804;52.350;6.684;2022-09-14T05:36:27;13.65;;;5.45;;
19339;SDS011;9804;52.350;6.684;2022-09-14T05:38:53;9.63;;;6.53;;
19339;SDS011;9804;52.350;6.684;2022-09-14T05:41:18;9.95;;;5.30;;
19339;SDS011;9804;52.350;6.684;2022-09-14T05:43:44;7.82;;;5.47;;
19339;SDS011;9804;52.350;6.684;2022-09-14T05:46:10;13.50;;;5.90;;
19339;SDS011;9804;52.350;6.684;2022-09-14T05:48:38;7.95;;;5.68;;
19339;SDS011;9804;52.350;6.684;2022-09-14T05:51:05;8.05;;;6.15;;
19339;SDS011;9804;52.350;6.684;2022-09-14T05:53:35;11.43;;;5.90;;
19339;SDS011;9804;52.350;6.684;2022-09-14T05:56:01;9.63;;;5.80;;
19339;SDS011;9804;52.350;6.684;2022-09-14T05:58:28;11.10;;;6.13;;
19339;SDS011;9804;52.350;6.684;2022-09-14T06:00:54;8.80;;;6.30;;
19339;SDS011;9804;52.350;6.684;2022-09-14T06:03:19;7.93;;;5.93;;
19339;SDS011;9804;52.350;6.684;2022-09-14T06:05:45;11.15;;;6.22;;
19339;SDS011;9804;52.350;6.684;2022-09-14T06:08:10;12.30;;;5.38;;
19339;SDS011;9804;52.350;6.684;2022-09-14T06:10:35;14.77;;;6.60;;
19339;SDS011;9804;52.350;6.684;2022-09-14T06:13:01;9.43;;;5.60;;
19339;SDS011;9804;52.350;6.684;2022-09-14T06:15:26;7.75;;;6.00;;
19339;SDS011;9804;52.350;6.684;2022-09-14T06:17:51;8.98;;;5.90;;
19339;SDS011;9804;52.350;6.684;2022-09-14T06:20:17;11.38;;;6.18;;
19339;SDS011;9804;52.350;6.684;2022-09-14T06:22:43;14.70;;;6.38;;
19339;SDS011;9804;52.350;6.684;2022-09-14T06:25:08;7.47;;;6.55;;
19339;SDS011;9804;52.350;6.684;2022-09-14T06:27:35;13.15;;;6.65;;
19339;SDS011;9804;52.350;6.684;2022-09-14T06:30:02;10.63;;;6.68;;
19339;SDS011;9804;52.350;6.684;2022-09-14T06:32:29;10.68;;;7.57;;
19339;SDS011;9804;52.350;6.684;2022-09-14T06:34:55;10.00;;;6.57;;
19339;SDS011;9804;52.350;6.684;2022-09-14T06:37:20;11.45;;;7.00;;
19339;SDS011;9804;52.350;6.684;2022-09-14T06:39:46;8.52;;;6.47;;
19339;SDS011;9804;52.350;6.684;2022-09-14T06:42:11;10.57;;;6.85;;
19339;SDS011;9804;52.350;6.684;2022-09-14T06:44:36;12.13;;;6.78;;
19339;SDS011;9804;52.350;6.684;2022-09-14T06:47:02;11.38;;;6.47;;
19339;SDS011;9804;52.350;6.684;2022-09-14T06:49:27;11.38;;;6.97;;
19339;SDS011;9804;52.350;6.684;2022-09-14T06:51:53;11.85;;;6.60;;
19339;SDS011;9804;52.350;6.684;2022-09-14T06:54:20;10.68;;;6.68;;
19339;SDS011;9804;52.350;6.684;2022-09-14T06:56:46;14.32;;;6.78;;
19339;SDS011;9804;52.350;6.684;2022-09-14T06:59:12;14.55;;;6.97;;
19339;SDS011;9804;52.350;6.684;2022-09-14T07:01:39;9.60;;;6.18;;
19339;SDS011;9804;52.350;6.684;2022-09-14T07:04:06;12.20;;;6.70;;
19339;SDS011;9804;52.350;6.684;2022-09-14T07:06:36;12.27;;;6.78;;
19339;SDS011;9804;52.350;6.684;2022-09-14T07:09:04;11.95;;;6.68;;
19339;SDS011;9804;52.350;6.684;2022-09-14T07:11:29;9.50;;;6.05;;
19339;SDS011;9804;52.350;6.684;2022-09-14T07:13:56;10.40;;;6.47;;
19339;SDS011;9804;52.350;6.684;2022-09-14T07:16:26;14.45;;;6.10;;
19339;SDS011;9804;52.350;6.684;2022-09-14T07:18:55;7.82;;;5.57;;
19339;SDS011;9804;52.350;6.684;2022-09-14T07:21:23;8.80;;;5.63;;
19339;SDS011;9804;52.350;6.684;2022-09-14T07:23:49;9.60;;;5.60;;
19339;SDS011;9804;52.350;6.684;2022-09-14T07:26:19;10.80;;;5.15;;
19339;SDS011;9804;52.350;6.684;2022-09-14T07:28:58;9.23;;;5.28;;
19339;SDS011;9804;52.350;6.684;2022-09-14T07:31:26;11.60;;;5.40;;
19339;SDS011;9804;52.350;6.684;2022-09-14T07:33:57;11.35;;;5.50;;
19339;SDS011;9804;52.350;6.684;2022-09-14T07:36:25;9.10;;;5.43;;
19339;SDS011;9804;52.350;6.684;2022-09-14T07:38:51;8.65;;;4.45;;
19339;SDS011;9804;52.350;6.684;2022-09-14T07:41:18;7.20;;;4.53;;
19339;SDS011;9804;52.350;6.684;2022-09-14T07:43:48;10.35;;;4.95;;
19339;SDS011;9804;52.350;6.684;2022-09-14T07:46:16;10.32;;;4.47;;
19339;SDS011;9804;52.350;6.684;2022-09-14T07:48:41;8.98;;;5.10;;
19339;SDS011;9804;52.350;6.684;2022-09-14T07:51:08;6.47;;;4.35;;
19339;SDS011;9804;52.350;6.684;2022-09-14T07:53:38;7.38;;;4.25;;
19339;SDS011;9804;52.350;6.684;2022-09-14T07:56:06;10.75;;;4.32;;
19339;SDS011;9804;52.350;6.684;2022-09-14T07:58:32;13.23;;;4.60;;
19339;SDS011;9804;52.350;6.684;2022-09-14T08:00:58;14.57;;;4.38;;
19339;SDS011;9804;52.350;6.684;2022-09-14T08:03:35;8.57;;;4.25;;
19339;SDS011;9804;52.350;6.684;2022-09-14T08:06:03;8.73;;;3.88;;
19339;SDS011;9804;52.350;6.684;2022-09-14T08:08:32;9.57;;;3.55;;
19339;SDS011;9804;52.350;6.684;2022-09-14T08:11:09;10.07;;;3.70;;
19339;SDS011;9804;52.350;6.684;2022-09-14T08:13:45;7.55;;;3.33;;
19339;SDS011;9804;52.350;6.684;2022-09-14T08:16:13;11.43;;;3.92;;
19339;SDS011;9804;52.350;6.684;2022-09-14T08:18:38;10.32;;;3.75;;
19339;SDS011;9804;52.350;6.684;2022-09-14T08:21:05;8.93;;;3.65;;
19339;SDS011;9804;52.350;6.684;2022-09-14T08:23:35;9.48;;;3.63;;
19339;SDS011;9804;52.350;6.684;2022-09-14T08:26:11;7.60;;;3.78;;
19339;SDS011;9804;52.350;6.684;2022-09-14T08:28:41;10.13;;;3.80;;
19339;SDS011;9804;52.350;6.684;2022-09-14T08:31:17;9.35;;;3.15;;
19339;SDS011;9804;52.350;6.684;2022-09-14T08:33:45;16.65;;;4.25;;
19339;SDS011;9804;52.350;6.684;2022-09-14T08:36:14;10.43;;;4.00;;
19339;SDS011;9804;52.350;6.684;2022-09-14T08:38:41;8.15;;;4.00;;
19339;SDS011;9804;52.350;6.684;2022-09-14T08:41:09;11.18;;;3.40;;
19339;SDS011;9804;52.350;6.684;2022-09-14T08:43:54;13.55;;;3.28;;
19339;SDS011;9804;52.350;6.684;2022-09-14T08:46:26;8.98;;;3.05;;
19339;SDS011;9804;52.350;6.684;2022-09-14T08:48:55;6.38;;;2.83;;
19339;SDS011;9804;52.350;6.684;2022-09-14T08:51:21;6.35;;;2.47;;
19339;SDS011;9804;52.350;6.684;2022-09-14T08:53:47;9.05;;;2.90;;
19339;SDS011;9804;52.350;6.684;2022-09-14T08:56:17;9.32;;;2.70;;
19339;SDS011;9804;52.350;6.684;2022-09-14T08:59:32;9.88;;;2.75;;
19339;SDS011;9804;52.350;6.684;2022-09-14T09:07:23;7.78;;;2.55;;
19339;SDS011;9804;52.350;6.684;2022-09-14T09:10:07;15.57;;;3.20;;
19339;SDS011;9804;52.350;6.684;2022-09-14T09:12:37;8.93;;;2.90;;
19339;SDS011;9804;52.350;6.684;2022-09-14T09:15:18;8.75;;;1.92;;
19339;SDS011;9804;52.350;6.684;2022-09-14T09:17:47;7.10;;;2.03;;
19339;SDS011;9804;52.350;6.684;2022-09-14T09:23:12;6.63;;;2.33;;
19339;SDS011;9804;52.350;6.684;2022-09-14T09:25:59;9.43;;;2.35;;
19339;SDS011;9804;52.350;6.684;2022-09-14T09:28:37;9.85;;;2.40;;
19339;SDS011;9804;52.350;6.684;2022-09-14T09:31:09;11.68;;;2.08;;
19339;SDS011;9804;52.350;6.684;2022-09-14T09:33:38;7.53;;;2.28;;
19339;SDS011;9804;52.350;6.684;2022-09-14T09:36:04;8.02;;;2.38;;
19339;SDS011;9804;52.350;6.684;2022-09-14T09:38:32;8.45;;;2.00;;
19339;SDS011;9804;52.350;6.684;2022-09-14T09:46:24;8.27;;;1.63;;
19339;SDS011;9804;52.350;6.684;2022-09-14T09:48:51;7.28;;;1.73;;
19339;SDS011;9804;52.350;6.684;2022-09-14T09:53:49;6.43;;;1.58;;
19339;SDS011;9804;52.350;6.684;2022-09-14T09:56:36;6.18;;;1.92;;
19339;SDS011;9804;52.350;6.684;2022-09-14T09:59:19;5.20;;;1.45;;
19339;SDS011;9804;52.350;6.684;2022-09-14T10:01:47;8.18;;;1.80;;
19339;SDS011;9804;52.350;6.684;2022-09-14T10:04:16;6.95;;;2.15;;
19339;SDS011;9804;52.350;6.684;2022-09-14T10:06:44;7.10;;;1.70;;
19339;SDS011;9804;52.350;6.684;2022-09-14T10:09:12;7.72;;;1.70;;
19339;SDS011;9804;52.350;6.684;2022-09-14T10:11:40;6.35;;;1.27;;
19339;SDS011;9804;52.350;6.684;2022-09-14T10:14:18;5.93;;;1.40;;
19339;SDS011;9804;52.350;6.684;2022-09-14T10:16:50;9.45;;;2.25;;
19339;SDS011;9804;52.350;6.684;2022-09-14T10:19:22;7.05;;;1.73;;
19339;SDS011;9804;52.350;6.684;2022-09-14T10:22:02;8.07;;;1.85;;
19339;SDS011;9804;52.350;6.684;2022-09-14T10:24:37;6.50;;;1.70;;
19339;SDS011;9804;52.350;6.684;2022-09-14T10:27:16;7.82;;;1.85;;
19339;SDS011;9804;52.350;6.684;2022-09-14T10:30:16;14.23;;;1.58;;
19339;SDS011;9804;52.350;6.684;2022-09-14T10:35:40;7.30;;;1.63;;
19339;SDS011;9804;52.350;6.684;2022-09-14T10:47:13;4.53;;;1.05;;
19339;SDS011;9804;52.350;6.684;2022-09-14T11:09:26;6.43;;;1.48;;
19339;SDS011;9804;52.350;6.684;2022-09-14T11:17:45;5.10;;;1.02;;
19339;SDS011;9804;52.350;6.684;2022-09-14T11:20:22;2.55;;;1.10;;
19339;SDS011;9804;52.350;6.684;2022-09-14T11:26:06;6.03;;;1.42;;
19339;SDS011;9804;52.350;6.684;2022-09-14T11:28:45;7.22;;;1.48;;
19339;SDS011;9804;52.350;6.684;2022-09-14T11:31:21;10.15;;;2.10;;
19339;SDS011;9804;52.350;6.684;2022-09-14T11:33:54;4.22;;;1.58;;
19339;SDS011;9804;52.350;6.684;2022-09-14T11:36:26;6.38;;;1.90;;
19339;SDS011;9804;52.350;6.684;2022-09-14T11:39:02;5.25;;;1.27;;
19339;SDS011;9804;52.350;6.684;2022-09-14T11:41:40;7.55;;;1.80;;
19339;SDS011;9804;52.350;6.684;2022-09-14T11:44:23;9.70;;;2.00;;
19339;SDS011;9804;52.350;6.684;2022-09-14T11:47:12;6.60;;;1.48;;
19339;SDS011;9804;52.350;6.684;2022-09-14T11:52:41;6.50;;;1.50;;
19339;SDS011;9804;52.350;6.684;2022-09-14T11:55:08;6.30;;;1.20;;
19339;SDS011;9804;52.350;6.684;2022-09-14T11:57:39;6.20;;;1.40;;
19339;SDS011;9804;52.350;6.684;2022-09-14T12:02:44;7.05;;;1.63;;
19339;SDS011;9804;52.350;6.684;2022-09-14T12:05:22;8.43;;;2.08;;
19339;SDS011;9804;52.350;6.684;2022-09-14T12:10:19;5.20;;;1.35;;
19339;SDS011;9804;52.350;6.684;2022-09-14T12:15:43;7.85;;;1.30;;
19339;SDS011;9804;52.350;6.684;2022-09-14T12:36:01;7.05;;;1.30;;
19339;SDS011;9804;52.350;6.684;2022-09-14T13:04:02;2.80;;;1.10;;
19339;SDS011;9804;52.350;6.684;2022-09-14T13:06:41;9.43;;;1.30;;
19339;SDS011;9804;52.350;6.684;2022-09-14T13:09:28;5.80;;;1.23;;
19339;SDS011;9804;52.350;6.684;2022-09-14T13:11:59;4.70;;;1.00;;
19339;SDS011;9804;52.350;6.684;2022-09-14T13:14:29;4.85;;;1.20;;
19339;SDS011;9804;52.350;6.684;2022-09-14T13:17:01;3.72;;;1.10;;
19339;SDS011;9804;52.350;6.684;2022-09-14T13:19:30;5.30;;;1.38;;
19339;SDS011;9804;52.350;6.684;2022-09-14T13:21:57;6.88;;;1.45;;
19339;SDS011;9804;52.350;6.684;2022-09-14T13:24:34;4.82;;;1.35;;
19339;SDS011;9804;52.350;6.684;2022-09-14T13:27:11;4.90;;;1.10;;
19339;SDS011;9804;52.350;6.684;2022-09-14T13:29:45;6.85;;;1.15;;
19339;SDS011;9804;52.350;6.684;2022-09-14T13:32:12;5.93;;;0.98;;
19339;SDS011;9804;52.350;6.684;2022-09-14T13:34:41;6.07;;;1.35;;
19339;SDS011;9804;52.350;6.684;2022-09-14T13:37:07;6.82;;;1.40;;
19339;SDS011;9804;52.350;6.684;2022-09-14T13:39:38;7.07;;;1.10;;
19339;SDS011;9804;52.350;6.684;2022-09-14T13:42:05;5.07;;;1.10;;
19339;SDS011;9804;52.350;6.684;2022-09-14T13:44:33;4.80;;;1.05;;
19339;SDS011;9804;52.350;6.684;2022-09-14T13:47:03;4.80;;;1.23;;
19339;SDS011;9804;52.350;6.684;2022-09-14T13:49:29;7.97;;;1.90;;
19339;SDS011;9804;52.350;6.684;2022-09-14T13:54:45;5.85;;;1.25;;
19339;SDS011;9804;52.350;6.684;2022-09-14T13:57:12;4.80;;;1.25;;
19339;SDS011;9804;52.350;6.684;2022-09-14T14:02:30;5.20;;;1.27;;
19339;SDS011;9804;52.350;6.684;2022-09-14T14:04:56;5.93;;;1.50;;
19339;SDS011;9804;52.350;6.684;2022-09-14T14:07:23;5.45;;;1.05;;
19339;SDS011;9804;52.350;6.684;2022-09-14T14:09:56;6.82;;;1.50;;
19339;SDS011;9804;52.350;6.684;2022-09-14T14:12:24;5.45;;;1.70;;
19339;SDS011;9804;52.350;6.684;2022-09-14T14:14:53;5.93;;;1.52;;
19339;SDS011;9804;52.350;6.684;2022-09-14T14:17:29;4.20;;;1.20;;
19339;SDS011;9804;52.350;6.684;2022-09-14T14:19:55;9.98;;;1.40;;
19339;SDS011;9804;52.350;6.684;2022-09-14T14:22:28;6.45;;;1.48;;
19339;SDS011;9804;52.350;6.684;2022-09-14T14:24:57;8.00;;;1.50;;
19339;SDS011;9804;52.350;6.684;2022-09-14T14:27:30;8.60;;;1.63;;
19339;SDS011;9804;52.350;6.684;2022-09-14T14:30:03;5.40;;;1.50;;
19339;SDS011;9804;52.350;6.684;2022-09-14T14:32:40;3.30;;;1.15;;
19339;SDS011;9804;52.350;6.684;2022-09-14T14:35:06;4.75;;;1.70;;
19339;SDS011;9804;52.350;6.684;2022-09-14T14:37:39;4.50;;;1.55;;
19339;SDS011;9804;52.350;6.684;2022-09-14T14:40:05;5.10;;;1.50;;
19339;SDS011;9804;52.350;6.684;2022-09-14T14:42:30;5.05;;;1.52;;
19339;SDS011;9804;52.350;6.684;2022-09-14T14:44:56;5.28;;;1.50;;
19339;SDS011;9804;52.350;6.684;2022-09-14T14:47:21;4.13;;;1.30;;
19339;SDS011;9804;52.350;6.684;2022-09-14T14:49:47;9.90;;;1.90;;
19339;SDS011;9804;52.350;6.684;2022-09-14T14:52:13;4.85;;;1.42;;
19339;SDS011;9804;52.350;6.684;2022-09-14T14:54:38;4.95;;;1.42;;
19339;SDS011;9804;52.350;6.684;2022-09-14T14:57:05;4.88;;;1.65;;
19339;SDS011;9804;52.350;6.684;2022-09-14T14:59:30;6.60;;;1.48;;
19339;SDS011;9804;52.350;6.684;2022-09-14T15:01:56;5.20;;;1.52;;
19339;SDS011;9804;52.350;6.684;2022-09-14T15:04:22;5.78;;;1.60;;
19339;SDS011;9804;52.350;6.684;2022-09-14T15:06:48;6.68;;;1.40;;
19339;SDS011;9804;52.350;6.684;2022-09-14T15:09:23;6.78;;;1.77;;
19339;SDS011;9804;52.350;6.684;2022-09-14T15:11:50;6.57;;;1.30;;
19339;SDS011;9804;52.350;6.684;2022-09-14T15:14:18;4.15;;;1.20;;
19339;SDS011;9804;52.350;6.684;2022-09-14T15:16:45;9.30;;;1.55;;
19339;SDS011;9804;52.350;6.684;2022-09-14T15:19:11;6.72;;;1.58;;
19339;SDS011;9804;52.350;6.684;2022-09-14T15:21:38;5.15;;;1.33;;
19339;SDS011;9804;52.350;6.684;2022-09-14T15:24:04;4.78;;;1.25;;
19339;SDS011;9804;52.350;6.684;2022-09-14T15:26:30;5.15;;;1.00;;
19339;SDS011;9804;52.350;6.684;2022-09-14T15:28:55;5.82;;;1.20;;
19339;SDS011;9804;52.350;6.684;2022-09-14T15:31:21;5.60;;;1.45;;
19339;SDS011;9804;52.350;6.684;2022-09-14T15:33:46;4.80;;;1.25;;
19339;SDS011;9804;52.350;6.684;2022-09-14T15:36:12;5.53;;;1.20;;
19339;SDS011;9804;52.350;6.684;2022-09-14T15:38:37;6.13;;;1.35;;
19339;SDS011;9804;52.350;6.684;2022-09-14T15:41:03;6.13;;;1.35;;
19339;SDS011;9804;52.350;6.684;2022-09-14T15:43:28;6.85;;;1.20;;
19339;SDS011;9804;52.350;6.684;2022-09-14T15:45:54;1.88;;;0.93;;
19339;SDS011;9804;52.350;6.684;2022-09-14T15:48:19;8.50;;;1.23;;
19339;SDS011;9804;52.350;6.684;2022-09-14T15:50:45;7.72;;;1.25;;
19339;SDS011;9804;52.350;6.684;2022-09-14T15:53:15;6.03;;;1.02;;
19339;SDS011;9804;52.350;6.684;2022-09-14T15:55:42;3.83;;;1.13;;
19339;SDS011;9804;52.350;6.684;2022-09-14T15:58:09;2.53;;;1.27;;
19339;SDS011;9804;52.350;6.684;2022-09-14T16:00:35;8.50;;;1.50;;
19339;SDS011;9804;52.350;6.684;2022-09-14T16:03:01;4.13;;;1.13;;
19339;SDS011;9804;52.350;6.684;2022-09-14T16:05:27;2.70;;;1.20;;
19339;SDS011;9804;52.350;6.684;2022-09-14T16:07:53;4.50;;;1.48;;
19339;SDS011;9804;52.350;6.684;2022-09-14T16:10:20;3.95;;;1.42;;
19339;SDS011;9804;52.350;6.684;2022-09-14T16:12:46;4.63;;;1.25;;
19339;SDS011;9804;52.350;6.684;2022-09-14T16:15:11;5.20;;;1.50;;
19339;SDS011;9804;52.350;6.684;2022-09-14T16:17:37;6.07;;;1.13;;
19339;SDS011;9804;52.350;6.684;2022-09-14T16:20:02;4.78;;;1.48;;
19339;SDS011;9804;52.350;6.684;2022-09-14T16:22:29;6.85;;;1.30;;
19339;SDS011;9804;52.350;6.684;2022-09-14T16:24:56;3.97;;;1.25;;
19339;SDS011;9804;52.350;6.684;2022-09-14T16:27:28;4.90;;;1.40;;
19339;SDS011;9804;52.350;6.684;2022-09-14T16:29:54;4.53;;;1.33;;
19339;SDS011;9804;52.350;6.684;2022-09-14T16:32:20;5.35;;;1.35;;
19339;SDS011;9804;52.350;6.684;2022-09-14T16:34:46;7.88;;;1.23;;
19339;SDS011;9804;52.350;6.684;2022-09-14T16:37:11;5.38;;;1.10;;
19339;SDS011;9804;52.350;6.684;2022-09-14T16:39:36;5.00;;;0.90;;
19339;SDS011;9804;52.350;6.684;2022-09-14T16:42:02;6.15;;;1.35;;
19339;SDS011;9804;52.350;6.684;2022-09-14T16:44:27;4.32;;;1.10;;
19339;SDS011;9804;52.350;6.684;2022-09-14T16:46:54;6.78;;;1.40;;
19339;SDS011;9804;52.350;6.684;2022-09-14T16:49:21;4.55;;;1.30;;
19339;SDS011;9804;52.350;6.684;2022-09-14T16:51:47;2.88;;;0.85;;
19339;SDS011;9804;52.350;6.684;2022-09-14T16:54:16;5.88;;;1.00;;
19339;SDS011;9804;52.350;6.684;2022-09-14T16:56:45;4.70;;;1.20;;
19339;SDS011;9804;52.350;6.684;2022-09-14T16:59:11;3.55;;;1.00;;
19339;SDS011;9804;52.350;6.684;2022-09-14T17:01:41;5.90;;;1.25;;
19339;SDS011;9804;52.350;6.684;2022-09-14T17:04:14;4.20;;;1.20;;
19339;SDS011;9804;52.350;6.684;2022-09-14T17:06:43;4.10;;;1.48;;
19339;SDS011;9804;52.350;6.684;2022-09-14T17:09:11;12.45;;;2.22;;
19339;SDS011;9804;52.350;6.684;2022-09-14T17:11:41;11.13;;;1.80;;
19339;SDS011;9804;52.350;6.684;2022-09-14T17:14:09;6.20;;;1.27;;
19339;SDS011;9804;52.350;6.684;2022-09-14T17:16:40;6.45;;;1.40;;
19339;SDS011;9804;52.350;6.684;2022-09-14T17:19:06;6.80;;;1.63;;
19339;SDS011;9804;52.350;6.684;2022-09-14T17:21:36;6.60;;;1.92;;
19339;SDS011;9804;52.350;6.684;2022-09-14T17:24:03;6.70;;;1.67;;
19339;SDS011;9804;52.350;6.684;2022-09-14T17:26:29;10.93;;;1.70;;
19339;SDS011;9804;52.350;6.684;2022-09-14T17:28:56;10.25;;;1.90;;
19339;SDS011;9804;52.350;6.684;2022-09-14T17:31:23;7.40;;;1.83;;
19339;SDS011;9804;52.350;6.684;2022-09-14T17:33:52;9.90;;;1.45;;
19339;SDS011;9804;52.350;6.684;2022-09-14T17:36:19;9.65;;;1.63;;
19339;SDS011;9804;52.350;6.684;2022-09-14T17:38:45;10.90;;;1.55;;
19339;SDS011;9804;52.350;6.684;2022-09-14T17:41:12;5.15;;;1.40;;